Main page
METAR-TAF:

METAR-TAF

Airports :

Nalchik Airport

Nalchik, Russia

latitude: 43-30-46N, longitude: 043-38-12E, elevation: 445 m

Current weather observation

The report was made 18 minutes ago, at 23:00 UTC
Wind 4 kt from the Southwest
Temperature 22°C
Humidity 73%
Pressure 1015 hPa
Visibility 10 km or more
Scattered clouds

METAR: URMN 192300Z 23002MPS 9999 SCT/// 22/17 Q1015 R24/////// NOSIG RMK QFE725

Time: 03:18 (23:18 UTC)

Forecast

The report was made 3 hours and 18 minutes ago, at 20:00 UTC
Forecast valid from 19 at 21 UTC to 20 at 06 UTC
Wind 6 kt from the West/Southwest with gusts up to 16 kt
Visibility 10 km or more
Scattered clouds at a height of 2000 ft

TAF: URMN 192000Z 1921/2006 24003G08MPS 9999 SCT020

Weather observations and forecasts of more than 4000 airports (METAR and TAF reports).

The available stations are represented by yellow and red dots on the map.

Hover mouse over dot to see the name of the station.

Then click to see weather observations and forecasts.

To change the map : click on the green buttons with a black cross to zoom in, on the green button with a dash to zoom out, or on the green arrows for adjacent maps.


METAR-TAF: